sensor_id;sensor_type;location;lat;lon;timestamp;P1;durP1;ratioP1;P2;durP2;ratioP2
32082;SDS011;18597;48.328;7.932;2022-07-06T00:01:44;2.00;;;2.00;;
32082;SDS011;18597;48.328;7.932;2022-07-06T00:04:10;2.10;;;2.10;;
32082;SDS011;18597;48.328;7.932;2022-07-06T00:06:37;2.30;;;2.20;;
32082;SDS011;18597;48.328;7.932;2022-07-06T00:09:03;2.00;;;2.00;;
32082;SDS011;18597;48.328;7.932;2022-07-06T00:11:30;2.03;;;1.80;;
32082;SDS011;18597;48.328;7.932;2022-07-06T00:13:56;2.37;;;2.27;;
32082;SDS011;18597;48.328;7.932;2022-07-06T00:16:22;2.77;;;2.57;;
32082;SDS011;18597;48.328;7.932;2022-07-06T00:18:48;3.30;;;3.10;;
32082;SDS011;18597;48.328;7.932;2022-07-06T00:21:14;2.80;;;2.33;;
32082;SDS011;18597;48.328;7.932;2022-07-06T00:23:41;2.37;;;2.27;;
32082;SDS011;18597;48.328;7.932;2022-07-06T00:26:07;3.10;;;2.90;;
32082;SDS011;18597;48.328;7.932;2022-07-06T00:28:33;3.90;;;2.30;;
32082;SDS011;18597;48.328;7.932;2022-07-06T00:30:59;2.93;;;2.73;;
32082;SDS011;18597;48.328;7.932;2022-07-06T00:33:25;3.10;;;2.90;;
32082;SDS011;18597;48.328;7.932;2022-07-06T00:35:51;2.30;;;2.20;;
32082;SDS011;18597;48.328;7.932;2022-07-06T00:38:17;6.83;;;3.60;;
32082;SDS011;18597;48.328;7.932;2022-07-06T00:40:43;3.40;;;3.20;;
32082;SDS011;18597;48.328;7.932;2022-07-06T00:43:09;6.60;;;2.50;;
32082;SDS011;18597;48.328;7.932;2022-07-06T00:45:35;3.17;;;2.97;;
32082;SDS011;18597;48.328;7.932;2022-07-06T00:48:01;2.57;;;2.43;;
32082;SDS011;18597;48.328;7.932;2022-07-06T00:50:27;3.77;;;3.50;;
32082;SDS011;18597;48.328;7.932;2022-07-06T00:52:55;3.50;;;2.20;;
32082;SDS011;18597;48.328;7.932;2022-07-06T00:55:27;4.90;;;2.60;;
32082;SDS011;18597;48.328;7.932;2022-07-06T00:57:55;3.30;;;2.97;;
32082;SDS011;18597;48.328;7.932;2022-07-06T01:00:24;2.50;;;2.40;;
32082;SDS011;18597;48.328;7.932;2022-07-06T01:02:52;2.90;;;2.70;;
32082;SDS011;18597;48.328;7.932;2022-07-06T01:05:19;5.00;;;3.53;;
32082;SDS011;18597;48.328;7.932;2022-07-06T01:07:49;3.70;;;3.50;;
32082;SDS011;18597;48.328;7.932;2022-07-06T01:10:17;3.63;;;2.50;;
32082;SDS011;18597;48.328;7.932;2022-07-06T01:12:46;4.00;;;2.60;;
32082;SDS011;18597;48.328;7.932;2022-07-06T01:15:14;2.50;;;2.40;;
32082;SDS011;18597;48.328;7.932;2022-07-06T01:17:45;3.10;;;3.00;;
32082;SDS011;18597;48.328;7.932;2022-07-06T01:20:13;2.43;;;2.23;;
32082;SDS011;18597;48.328;7.932;2022-07-06T01:22:44;10.73;;;3.60;;
32082;SDS011;18597;48.328;7.932;2022-07-06T01:25:12;3.20;;;2.20;;
32082;SDS011;18597;48.328;7.932;2022-07-06T01:27:39;1.97;;;1.87;;
32082;SDS011;18597;48.328;7.932;2022-07-06T01:30:08;4.93;;;2.30;;
32082;SDS011;18597;48.328;7.932;2022-07-06T01:32:36;2.30;;;2.30;;
32082;SDS011;18597;48.328;7.932;2022-07-06T01:35:04;2.63;;;2.43;;
32082;SDS011;18597;48.328;7.932;2022-07-06T01:37:32;2.60;;;2.50;;
32082;SDS011;18597;48.328;7.932;2022-07-06T01:39:59;2.73;;;2.63;;
32082;SDS011;18597;48.328;7.932;2022-07-06T01:42:27;2.70;;;1.93;;
32082;SDS011;18597;48.328;7.932;2022-07-06T01:44:53;6.17;;;2.90;;
32082;SDS011;18597;48.328;7.932;2022-07-06T01:47:20;2.50;;;2.40;;
32082;SDS011;18597;48.328;7.932;2022-07-06T01:49:46;2.47;;;2.30;;
32082;SDS011;18597;48.328;7.932;2022-07-06T01:52:12;2.73;;;2.63;;
32082;SDS011;18597;48.328;7.932;2022-07-06T01:54:38;13.67;;;2.97;;
32082;SDS011;18597;48.328;7.932;2022-07-06T01:57:04;2.50;;;2.40;;
32082;SDS011;18597;48.328;7.932;2022-07-06T01:59:30;2.43;;;2.33;;
32082;SDS011;18597;48.328;7.932;2022-07-06T02:01:56;3.07;;;2.80;;
32082;SDS011;18597;48.328;7.932;2022-07-06T02:04:22;2.97;;;2.87;;
32082;SDS011;18597;48.328;7.932;2022-07-06T02:06:48;4.30;;;2.77;;
32082;SDS011;18597;48.328;7.932;2022-07-06T02:09:13;2.70;;;2.60;;
32082;SDS011;18597;48.328;7.932;2022-07-06T02:11:40;3.10;;;2.17;;
32082;SDS011;18597;48.328;7.932;2022-07-06T02:14:06;1.90;;;1.90;;
32082;SDS011;18597;48.328;7.932;2022-07-06T02:16:32;2.00;;;2.00;;
32082;SDS011;18597;48.328;7.932;2022-07-06T02:18:58;7.30;;;3.23;;
32082;SDS011;18597;48.328;7.932;2022-07-06T02:21:24;5.83;;;2.97;;
32082;SDS011;18597;48.328;7.932;2022-07-06T02:23:50;7.13;;;2.63;;
32082;SDS011;18597;48.328;7.932;2022-07-06T02:26:15;2.60;;;2.50;;
32082;SDS011;18597;48.328;7.932;2022-07-06T02:28:41;2.37;;;2.27;;
32082;SDS011;18597;48.328;7.932;2022-07-06T02:31:07;2.10;;;2.10;;
32082;SDS011;18597;48.328;7.932;2022-07-06T02:33:33;7.13;;;2.83;;
32082;SDS011;18597;48.328;7.932;2022-07-06T02:35:59;2.67;;;2.53;;
32082;SDS011;18597;48.328;7.932;2022-07-06T02:38:24;4.47;;;3.10;;
32082;SDS011;18597;48.328;7.932;2022-07-06T02:40:50;2.73;;;2.63;;
32082;SDS011;18597;48.328;7.932;2022-07-06T02:43:17;2.83;;;2.70;;
32082;SDS011;18597;48.328;7.932;2022-07-06T02:45:42;11.70;;;2.80;;
32082;SDS011;18597;48.328;7.932;2022-07-06T02:48:08;2.93;;;2.70;;
32082;SDS011;18597;48.328;7.932;2022-07-06T02:50:34;2.67;;;2.53;;
32082;SDS011;18597;48.328;7.932;2022-07-06T02:53:00;2.87;;;2.77;;
32082;SDS011;18597;48.328;7.932;2022-07-06T02:55:26;2.63;;;2.43;;
32082;SDS011;18597;48.328;7.932;2022-07-06T02:57:52;2.30;;;2.20;;
32082;SDS011;18597;48.328;7.932;2022-07-06T03:00:18;2.40;;;2.30;;
32082;SDS011;18597;48.328;7.932;2022-07-06T03:02:44;3.17;;;2.90;;
32082;SDS011;18597;48.328;7.932;2022-07-06T03:05:10;3.73;;;2.50;;
32082;SDS011;18597;48.328;7.932;2022-07-06T03:07:36;3.23;;;2.93;;
32082;SDS011;18597;48.328;7.932;2022-07-06T03:10:02;3.07;;;2.87;;
32082;SDS011;18597;48.328;7.932;2022-07-06T03:12:28;3.17;;;2.97;;
32082;SDS011;18597;48.328;7.932;2022-07-06T03:14:54;2.63;;;2.40;;
32082;SDS011;18597;48.328;7.932;2022-07-06T03:17:20;7.83;;;2.80;;
32082;SDS011;18597;48.328;7.932;2022-07-06T03:19:46;4.10;;;2.53;;
32082;SDS011;18597;48.328;7.932;2022-07-06T03:22:12;3.43;;;2.40;;
32082;SDS011;18597;48.328;7.932;2022-07-06T03:24:38;3.60;;;2.70;;
32082;SDS011;18597;48.328;7.932;2022-07-06T03:27:04;3.10;;;3.00;;
32082;SDS011;18597;48.328;7.932;2022-07-06T03:29:30;10.10;;;2.97;;
32082;SDS011;18597;48.328;7.932;2022-07-06T03:31:56;3.77;;;3.57;;
32082;SDS011;18597;48.328;7.932;2022-07-06T03:34:22;2.57;;;2.47;;
32082;SDS011;18597;48.328;7.932;2022-07-06T03:36:48;2.70;;;2.60;;
32082;SDS011;18597;48.328;7.932;2022-07-06T03:39:14;2.70;;;2.50;;
32082;SDS011;18597;48.328;7.932;2022-07-06T03:41:39;3.50;;;3.30;;
32082;SDS011;18597;48.328;7.932;2022-07-06T03:44:05;3.17;;;2.87;;
32082;SDS011;18597;48.328;7.932;2022-07-06T03:46:31;4.17;;;2.77;;
32082;SDS011;18597;48.328;7.932;2022-07-06T03:48:57;2.53;;;2.53;;
32082;SDS011;18597;48.328;7.932;2022-07-06T03:51:22;6.20;;;2.70;;
32082;SDS011;18597;48.328;7.932;2022-07-06T03:53:48;3.03;;;2.47;;
32082;SDS011;18597;48.328;7.932;2022-07-06T03:56:14;4.10;;;3.80;;
32082;SDS011;18597;48.328;7.932;2022-07-06T03:58:57;3.67;;;2.83;;
32082;SDS011;18597;48.328;7.932;2022-07-06T04:01:25;2.50;;;2.30;;
32082;SDS011;18597;48.328;7.932;2022-07-06T04:03:51;2.50;;;2.40;;
32082;SDS011;18597;48.328;7.932;2022-07-06T04:06:18;7.33;;;3.33;;
32082;SDS011;18597;48.328;7.932;2022-07-06T04:08:44;3.17;;;2.70;;
32082;SDS011;18597;48.328;7.932;2022-07-06T04:11:11;4.10;;;3.17;;
32082;SDS011;18597;48.328;7.932;2022-07-06T04:13:37;3.20;;;3.00;;
32082;SDS011;18597;48.328;7.932;2022-07-06T04:16:04;2.63;;;2.63;;
32082;SDS011;18597;48.328;7.932;2022-07-06T04:18:31;2.50;;;2.40;;
32082;SDS011;18597;48.328;7.932;2022-07-06T04:20:57;10.53;;;3.37;;
32082;SDS011;18597;48.328;7.932;2022-07-06T04:23:23;2.80;;;2.70;;
32082;SDS011;18597;48.328;7.932;2022-07-06T04:25:50;2.37;;;2.20;;
32082;SDS011;18597;48.328;7.932;2022-07-06T04:28:16;3.60;;;3.30;;
32082;SDS011;18597;48.328;7.932;2022-07-06T04:30:42;4.10;;;2.97;;
32082;SDS011;18597;48.328;7.932;2022-07-06T04:33:08;2.93;;;2.67;;
32082;SDS011;18597;48.328;7.932;2022-07-06T04:35:35;5.00;;;3.30;;
32082;SDS011;18597;48.328;7.932;2022-07-06T04:38:01;2.90;;;2.73;;
32082;SDS011;18597;48.328;7.932;2022-07-06T04:40:27;3.20;;;2.97;;
32082;SDS011;18597;48.328;7.932;2022-07-06T04:42:53;7.10;;;3.37;;
32082;SDS011;18597;48.328;7.932;2022-07-06T04:45:18;10.77;;;3.27;;
32082;SDS011;18597;48.328;7.932;2022-07-06T04:47:44;6.83;;;2.80;;
32082;SDS011;18597;48.328;7.932;2022-07-06T04:50:10;4.57;;;2.30;;
32082;SDS011;18597;48.328;7.932;2022-07-06T04:52:37;5.57;;;3.00;;
32082;SDS011;18597;48.328;7.932;2022-07-06T04:55:03;2.27;;;2.17;;
32082;SDS011;18597;48.328;7.932;2022-07-06T04:57:30;10.63;;;3.73;;
32082;SDS011;18597;48.328;7.932;2022-07-06T04:59:57;2.30;;;2.20;;
32082;SDS011;18597;48.328;7.932;2022-07-06T05:02:23;2.43;;;2.00;;
32082;SDS011;18597;48.328;7.932;2022-07-06T05:04:49;5.07;;;1.93;;
32082;SDS011;18597;48.328;7.932;2022-07-06T05:07:15;2.40;;;2.30;;
32082;SDS011;18597;48.328;7.932;2022-07-06T05:09:41;1.40;;;1.40;;
32082;SDS011;18597;48.328;7.932;2022-07-06T05:12:07;1.63;;;1.63;;
32082;SDS011;18597;48.328;7.932;2022-07-06T05:14:34;2.23;;;2.10;;
32082;SDS011;18597;48.328;7.932;2022-07-06T05:17:01;2.00;;;2.00;;
32082;SDS011;18597;48.328;7.932;2022-07-06T05:19:27;2.43;;;1.73;;
32082;SDS011;18597;48.328;7.932;2022-07-06T05:21:53;2.43;;;1.47;;
32082;SDS011;18597;48.328;7.932;2022-07-06T05:24:19;1.27;;;1.27;;
32082;SDS011;18597;48.328;7.932;2022-07-06T05:26:45;3.43;;;1.70;;
32082;SDS011;18597;48.328;7.932;2022-07-06T05:29:11;1.80;;;1.70;;
32082;SDS011;18597;48.328;7.932;2022-07-06T05:31:37;1.90;;;1.33;;
32082;SDS011;18597;48.328;7.932;2022-07-06T05:34:03;1.40;;;1.40;;
32082;SDS011;18597;48.328;7.932;2022-07-06T05:36:29;2.67;;;1.50;;
32082;SDS011;18597;48.328;7.932;2022-07-06T05:38:54;4.77;;;1.53;;
32082;SDS011;18597;48.328;7.932;2022-07-06T05:41:20;1.60;;;1.60;;
32082;SDS011;18597;48.328;7.932;2022-07-06T05:43:46;1.40;;;1.40;;
32082;SDS011;18597;48.328;7.932;2022-07-06T05:46:12;0.93;;;0.93;;
32082;SDS011;18597;48.328;7.932;2022-07-06T05:48:38;3.00;;;1.63;;
32082;SDS011;18597;48.328;7.932;2022-07-06T05:51:23;2.10;;;1.83;;
32082;SDS011;18597;48.328;7.932;2022-07-06T05:53:49;1.50;;;1.30;;
32082;SDS011;18597;48.328;7.932;2022-07-06T05:56:15;5.03;;;1.92;;
32082;SDS011;18597;48.328;7.932;2022-07-06T05:58:41;1.98;;;1.80;;
32082;SDS011;18597;48.328;7.932;2022-07-06T06:01:07;1.75;;;1.65;;
32082;SDS011;18597;48.328;7.932;2022-07-06T06:03:34;1.35;;;1.35;;
32082;SDS011;18597;48.328;7.932;2022-07-06T06:06:00;1.48;;;1.48;;
32082;SDS011;18597;48.328;7.932;2022-07-06T06:08:25;1.65;;;1.55;;
32082;SDS011;18597;48.328;7.932;2022-07-06T06:10:52;2.10;;;1.48;;
32082;SDS011;18597;48.328;7.932;2022-07-06T06:13:18;2.05;;;1.95;;
32082;SDS011;18597;48.328;7.932;2022-07-06T06:15:44;2.33;;;2.22;;
32082;SDS011;18597;48.328;7.932;2022-07-06T06:18:10;1.77;;;1.67;;
32082;SDS011;18597;48.328;7.932;2022-07-06T06:20:36;3.70;;;1.60;;
32082;SDS011;18597;48.328;7.932;2022-07-06T06:23:02;2.47;;;2.22;;
32082;SDS011;18597;48.328;7.932;2022-07-06T06:25:30;1.48;;;1.48;;
32082;SDS011;18597;48.328;7.932;2022-07-06T06:28:03;1.63;;;1.52;;
32082;SDS011;18597;48.328;7.932;2022-07-06T06:30:31;8.20;;;2.22;;
32082;SDS011;18597;48.328;7.932;2022-07-06T06:33:13;2.60;;;1.77;;
32082;SDS011;18597;48.328;7.932;2022-07-06T06:35:43;5.65;;;1.83;;
32082;SDS011;18597;48.328;7.932;2022-07-06T06:38:15;3.20;;;1.50;;
32082;SDS011;18597;48.328;7.932;2022-07-06T06:40:43;1.75;;;1.65;;
32082;SDS011;18597;48.328;7.932;2022-07-06T06:43:09;4.25;;;1.77;;
32082;SDS011;18597;48.328;7.932;2022-07-06T06:45:35;4.32;;;1.77;;
32082;SDS011;18597;48.328;7.932;2022-07-06T06:48:01;2.17;;;1.50;;
32082;SDS011;18597;48.328;7.932;2022-07-06T06:50:27;2.72;;;1.65;;
32082;SDS011;18597;48.328;7.932;2022-07-06T06:52:54;1.95;;;1.52;;
32082;SDS011;18597;48.328;7.932;2022-07-06T06:55:20;1.90;;;1.80;;
32082;SDS011;18597;48.328;7.932;2022-07-06T06:57:46;1.35;;;1.33;;
32082;SDS011;18597;48.328;7.932;2022-07-06T07:00:12;3.65;;;2.03;;
32082;SDS011;18597;48.328;7.932;2022-07-06T07:02:38;1.77;;;1.25;;
32082;SDS011;18597;48.328;7.932;2022-07-06T07:05:04;1.98;;;1.85;;
32082;SDS011;18597;48.328;7.932;2022-07-06T07:07:31;3.30;;;1.98;;
32082;SDS011;18597;48.328;7.932;2022-07-06T07:09:58;1.88;;;1.88;;
32082;SDS011;18597;48.328;7.932;2022-07-06T07:12:24;2.55;;;1.73;;
32082;SDS011;18597;48.328;7.932;2022-07-06T07:14:50;2.17;;;2.08;;
32082;SDS011;18597;48.328;7.932;2022-07-06T07:17:16;8.23;;;2.10;;
32082;SDS011;18597;48.328;7.932;2022-07-06T07:19:42;6.85;;;3.03;;
32082;SDS011;18597;48.328;7.932;2022-07-06T07:22:08;10.18;;;2.17;;
32082;SDS011;18597;48.328;7.932;2022-07-06T07:24:34;1.70;;;1.60;;
32082;SDS011;18597;48.328;7.932;2022-07-06T07:26:59;1.67;;;1.65;;
32082;SDS011;18597;48.328;7.932;2022-07-06T07:29:25;4.05;;;2.38;;
32082;SDS011;18597;48.328;7.932;2022-07-06T07:31:51;1.70;;;1.60;;
32082;SDS011;18597;48.328;7.932;2022-07-06T07:34:17;2.95;;;1.33;;
32082;SDS011;18597;48.328;7.932;2022-07-06T07:36:43;1.52;;;1.40;;
32082;SDS011;18597;48.328;7.932;2022-07-06T07:39:09;2.75;;;1.17;;
32082;SDS011;18597;48.328;7.932;2022-07-06T07:41:35;1.65;;;1.55;;
32082;SDS011;18597;48.328;7.932;2022-07-06T07:44:01;3.58;;;1.67;;
32082;SDS011;18597;48.328;7.932;2022-07-06T07:46:27;2.28;;;1.38;;
32082;SDS011;18597;48.328;7.932;2022-07-06T07:48:53;1.85;;;1.60;;
32082;SDS011;18597;48.328;7.932;2022-07-06T07:51:18;1.38;;;1.27;;
32082;SDS011;18597;48.328;7.932;2022-07-06T07:53:44;1.88;;;1.63;;
32082;SDS011;18597;48.328;7.932;2022-07-06T07:56:10;1.05;;;1.00;;
32082;SDS011;18597;48.328;7.932;2022-07-06T07:58:37;1.20;;;1.10;;
32082;SDS011;18597;48.328;7.932;2022-07-06T08:01:03;2.05;;;1.48;;
32082;SDS011;18597;48.328;7.932;2022-07-06T08:03:29;1.27;;;1.17;;
32082;SDS011;18597;48.328;7.932;2022-07-06T08:05:56;3.90;;;2.08;;
32082;SDS011;18597;48.328;7.932;2022-07-06T08:08:23;4.18;;;1.45;;
32082;SDS011;18597;48.328;7.932;2022-07-06T08:10:49;1.40;;;1.30;;
32082;SDS011;18597;48.328;7.932;2022-07-06T08:13:15;1.70;;;1.60;;
32082;SDS011;18597;48.328;7.932;2022-07-06T08:15:41;1.02;;;1.02;;
32082;SDS011;18597;48.328;7.932;2022-07-06T08:18:07;1.20;;;1.10;;
32082;SDS011;18597;48.328;7.932;2022-07-06T08:20:34;1.90;;;1.42;;
32082;SDS011;18597;48.328;7.932;2022-07-06T08:23:02;1.73;;;1.60;;
32082;SDS011;18597;48.328;7.932;2022-07-06T08:25:28;2.92;;;1.00;;
32082;SDS011;18597;48.328;7.932;2022-07-06T08:27:55;6.28;;;1.98;;
32082;SDS011;18597;48.328;7.932;2022-07-06T08:30:21;3.97;;;1.70;;
32082;SDS011;18597;48.328;7.932;2022-07-06T08:32:46;1.83;;;1.10;;
32082;SDS011;18597;48.328;7.932;2022-07-06T08:35:12;1.75;;;1.00;;
32082;SDS011;18597;48.328;7.932;2022-07-06T08:37:39;0.95;;;0.95;;
32082;SDS011;18597;48.328;7.932;2022-07-06T08:40:05;1.60;;;1.50;;
32082;SDS011;18597;48.328;7.932;2022-07-06T08:42:32;2.55;;;1.08;;
32082;SDS011;18597;48.328;7.932;2022-07-06T08:45:00;1.10;;;1.10;;
32082;SDS011;18597;48.328;7.932;2022-07-06T08:47:30;1.40;;;1.30;;
32082;SDS011;18597;48.328;7.932;2022-07-06T08:49:56;3.80;;;1.15;;
32082;SDS011;18597;48.328;7.932;2022-07-06T08:52:23;2.13;;;1.48;;
32082;SDS011;18597;48.328;7.932;2022-07-06T08:54:50;1.33;;;1.33;;
32082;SDS011;18597;48.328;7.932;2022-07-06T08:57:16;4.25;;;1.27;;
32082;SDS011;18597;48.328;7.932;2022-07-06T08:59:42;1.40;;;1.40;;
32082;SDS011;18597;48.328;7.932;2022-07-06T09:02:09;4.35;;;2.00;;
32082;SDS011;18597;48.328;7.932;2022-07-06T09:04:36;1.88;;;1.40;;
32082;SDS011;18597;48.328;7.932;2022-07-06T09:07:03;1.42;;;1.15;;
32082;SDS011;18597;48.328;7.932;2022-07-06T09:09:29;2.45;;;1.40;;
32082;SDS011;18597;48.328;7.932;2022-07-06T09:11:56;1.33;;;1.13;;
32082;SDS011;18597;48.328;7.932;2022-07-06T09:14:23;4.00;;;1.20;;
32082;SDS011;18597;48.328;7.932;2022-07-06T09:16:52;1.17;;;1.00;;
32082;SDS011;18597;48.328;7.932;2022-07-06T09:19:30;1.65;;;1.48;;
32082;SDS011;18597;48.328;7.932;2022-07-06T09:21:59;1.00;;;1.00;;
32082;SDS011;18597;48.328;7.932;2022-07-06T09:24:27;4.82;;;1.13;;
32082;SDS011;18597;48.328;7.932;2022-07-06T09:26:54;1.50;;;1.40;;
32082;SDS011;18597;48.328;7.932;2022-07-06T09:29:30;4.50;;;1.55;;
32082;SDS011;18597;48.328;7.932;2022-07-06T09:34:39;2.42;;;2.22;;
32082;SDS011;18597;48.328;7.932;2022-07-06T09:37:07;5.53;;;1.90;;
32082;SDS011;18597;48.328;7.932;2022-07-06T09:39:33;3.17;;;2.10;;
32082;SDS011;18597;48.328;7.932;2022-07-06T09:41:59;2.80;;;2.00;;
32082;SDS011;18597;48.328;7.932;2022-07-06T09:44:29;9.60;;;2.30;;
32082;SDS011;18597;48.328;7.932;2022-07-06T09:46:59;5.17;;;2.53;;
32082;SDS011;18597;48.328;7.932;2022-07-06T09:49:28;3.90;;;2.60;;
32082;SDS011;18597;48.328;7.932;2022-07-06T09:51:56;7.07;;;3.53;;
32082;SDS011;18597;48.328;7.932;2022-07-06T09:54:26;10.80;;;4.50;;
32082;SDS011;18597;48.328;7.932;2022-07-06T09:56:53;1.83;;;1.73;;
32082;SDS011;18597;48.328;7.932;2022-07-06T09:59:21;5.33;;;2.97;;
32082;SDS011;18597;48.328;7.932;2022-07-06T10:01:51;10.43;;;3.00;;
32082;SDS011;18597;48.328;7.932;2022-07-06T10:04:21;6.30;;;2.23;;
32082;SDS011;18597;48.328;7.932;2022-07-06T10:06:48;11.20;;;2.50;;
32082;SDS011;18597;48.328;7.932;2022-07-06T10:09:15;2.83;;;2.20;;
32082;SDS011;18597;48.328;7.932;2022-07-06T10:11:45;4.33;;;2.90;;
32082;SDS011;18597;48.328;7.932;2022-07-06T10:14:22;2.70;;;2.57;;
32082;SDS011;18597;48.328;7.932;2022-07-06T10:16:50;2.80;;;2.60;;
32082;SDS011;18597;48.328;7.932;2022-07-06T10:19:18;6.03;;;2.70;;
32082;SDS011;18597;48.328;7.932;2022-07-06T10:21:46;4.97;;;3.40;;
32082;SDS011;18597;48.328;7.932;2022-07-06T10:24:13;4.67;;;3.30;;
32082;SDS011;18597;48.328;7.932;2022-07-06T10:26:40;3.17;;;2.87;;
32082;SDS011;18597;48.328;7.932;2022-07-06T10:29:07;5.23;;;2.10;;
32082;SDS011;18597;48.328;7.932;2022-07-06T10:31:34;4.60;;;3.10;;
32082;SDS011;18597;48.328;7.932;2022-07-06T10:34:05;4.73;;;2.30;;
32082;SDS011;18597;48.328;7.932;2022-07-06T10:36:37;2.83;;;2.63;;
32082;SDS011;18597;48.328;7.932;2022-07-06T10:39:05;2.90;;;2.47;;
32082;SDS011;18597;48.328;7.932;2022-07-06T10:41:51;3.10;;;2.57;;
32082;SDS011;18597;48.328;7.932;2022-07-06T10:44:18;4.40;;;3.20;;
32082;SDS011;18597;48.328;7.932;2022-07-06T10:46:57;5.70;;;2.83;;
32082;SDS011;18597;48.328;7.932;2022-07-06T10:49:24;4.50;;;3.47;;
32082;SDS011;18597;48.328;7.932;2022-07-06T10:51:52;3.40;;;3.20;;
32082;SDS011;18597;48.328;7.932;2022-07-06T10:54:21;11.23;;;4.13;;
32082;SDS011;18597;48.328;7.932;2022-07-06T10:56:48;6.80;;;5.33;;
32082;SDS011;18597;48.328;7.932;2022-07-06T10:59:18;4.00;;;2.50;;
32082;SDS011;18597;48.328;7.932;2022-07-06T11:02:17;3.57;;;1.97;;
32082;SDS011;18597;48.328;7.932;2022-07-06T11:04:45;5.00;;;2.27;;
32082;SDS011;18597;48.328;7.932;2022-07-06T11:07:13;5.37;;;2.40;;
32082;SDS011;18597;48.328;7.932;2022-07-06T11:09:42;4.03;;;2.40;;
32082;SDS011;18597;48.328;7.932;2022-07-06T11:12:22;3.53;;;2.30;;
32082;SDS011;18597;48.328;7.932;2022-07-06T11:14:49;10.20;;;2.87;;
32082;SDS011;18597;48.328;7.932;2022-07-06T11:17:17;4.00;;;2.30;;
32082;SDS011;18597;48.328;7.932;2022-07-06T11:20:08;3.80;;;2.60;;
32082;SDS011;18597;48.328;7.932;2022-07-06T11:22:37;3.53;;;3.23;;
32082;SDS011;18597;48.328;7.932;2022-07-06T11:25:04;5.50;;;2.43;;
32082;SDS011;18597;48.328;7.932;2022-07-06T11:27:31;5.47;;;2.50;;
32082;SDS011;18597;48.328;7.932;2022-07-06T11:30:00;3.10;;;2.90;;
32082;SDS011;18597;48.328;7.932;2022-07-06T11:32:26;2.10;;;2.00;;
32082;SDS011;18597;48.328;7.932;2022-07-06T11:34:52;1.87;;;1.87;;
32082;SDS011;18597;48.328;7.932;2022-07-06T11:37:18;2.10;;;2.00;;
32082;SDS011;18597;48.328;7.932;2022-07-06T11:39:46;9.30;;;2.87;;
32082;SDS011;18597;48.328;7.932;2022-07-06T11:42:14;5.50;;;3.13;;
32082;SDS011;18597;48.328;7.932;2022-07-06T11:44:42;2.67;;;2.43;;
32082;SDS011;18597;48.328;7.932;2022-07-06T11:47:10;3.13;;;2.47;;
32082;SDS011;18597;48.328;7.932;2022-07-06T11:49:37;7.73;;;2.37;;
32082;SDS011;18597;48.328;7.932;2022-07-06T11:52:06;3.17;;;2.50;;
32082;SDS011;18597;48.328;7.932;2022-07-06T11:54:33;2.57;;;2.17;;
32082;SDS011;18597;48.328;7.932;2022-07-06T11:57:00;16.83;;;2.90;;
32082;SDS011;18597;48.328;7.932;2022-07-06T11:59:30;5.00;;;3.23;;
32082;SDS011;18597;48.328;7.932;2022-07-06T12:02:01;6.50;;;3.90;;
32082;SDS011;18597;48.328;7.932;2022-07-06T12:04:34;5.03;;;4.23;;
32082;SDS011;18597;48.328;7.932;2022-07-06T12:07:05;2.37;;;2.27;;
32082;SDS011;18597;48.328;7.932;2022-07-06T12:09:37;6.50;;;4.67;;
32082;SDS011;18597;48.328;7.932;2022-07-06T12:12:05;3.40;;;2.17;;
32082;SDS011;18597;48.328;7.932;2022-07-06T12:14:34;7.60;;;5.53;;
32082;SDS011;18597;48.328;7.932;2022-07-06T12:17:03;8.53;;;3.83;;
32082;SDS011;18597;48.328;7.932;2022-07-06T12:19:31;2.87;;;2.30;;
32082;SDS011;18597;48.328;7.932;2022-07-06T12:21:58;5.80;;;2.10;;
32082;SDS011;18597;48.328;7.932;2022-07-06T12:24:27;2.47;;;2.27;;
32082;SDS011;18597;48.328;7.932;2022-07-06T12:26:56;2.10;;;1.90;;
32082;SDS011;18597;48.328;7.932;2022-07-06T12:29:23;13.43;;;2.97;;
32082;SDS011;18597;48.328;7.932;2022-07-06T12:31:50;4.70;;;2.67;;
32082;SDS011;18597;48.328;7.932;2022-07-06T12:34:19;2.33;;;2.10;;
32082;SDS011;18597;48.328;7.932;2022-07-06T12:36:52;6.57;;;2.10;;
32082;SDS011;18597;48.328;7.932;2022-07-06T12:39:24;4.03;;;2.37;;
32082;SDS011;18597;48.328;7.932;2022-07-06T12:41:53;10.60;;;3.10;;
32082;SDS011;18597;48.328;7.932;2022-07-06T12:44:26;2.47;;;2.37;;
32082;SDS011;18597;48.328;7.932;2022-07-06T12:47:08;8.73;;;2.60;;
32082;SDS011;18597;48.328;7.932;2022-07-06T12:49:36;9.47;;;3.50;;
32082;SDS011;18597;48.328;7.932;2022-07-06T12:54:48;3.43;;;3.20;;
32082;SDS011;18597;48.328;7.932;2022-07-06T12:57:16;2.90;;;2.80;;
32082;SDS011;18597;48.328;7.932;2022-07-06T12:59:56;3.03;;;2.23;;
32082;SDS011;18597;48.328;7.932;2022-07-06T13:02:31;4.37;;;2.93;;
32082;SDS011;18597;48.328;7.932;2022-07-06T13:05:04;4.70;;;2.93;;
32082;SDS011;18597;48.328;7.932;2022-07-06T13:07:35;3.63;;;3.13;;
32082;SDS011;18597;48.328;7.932;2022-07-06T13:10:03;10.63;;;3.70;;
32082;SDS011;18597;48.328;7.932;2022-07-06T13:12:32;4.10;;;2.53;;
32082;SDS011;18597;48.328;7.932;2022-07-06T13:14:59;9.43;;;2.83;;
32082;SDS011;18597;48.328;7.932;2022-07-06T13:17:25;4.30;;;2.83;;
32082;SDS011;18597;48.328;7.932;2022-07-06T13:19:51;2.30;;;2.20;;
32082;SDS011;18597;48.328;7.932;2022-07-06T13:22:17;4.87;;;3.10;;
32082;SDS011;18597;48.328;7.932;2022-07-06T13:24:43;6.60;;;5.90;;
32082;SDS011;18597;48.328;7.932;2022-07-06T13:27:09;3.10;;;2.87;;
32082;SDS011;18597;48.328;7.932;2022-07-06T13:29:36;9.70;;;2.10;;
32082;SDS011;18597;48.328;7.932;2022-07-06T13:32:02;5.40;;;2.53;;
32082;SDS011;18597;48.328;7.932;2022-07-06T13:34:29;7.23;;;3.10;;
32082;SDS011;18597;48.328;7.932;2022-07-06T13:36:56;4.13;;;2.97;;
32082;SDS011;18597;48.328;7.932;2022-07-06T13:39:22;2.23;;;1.80;;
32082;SDS011;18597;48.328;7.932;2022-07-06T13:41:49;7.10;;;2.57;;
32082;SDS011;18597;48.328;7.932;2022-07-06T13:44:15;10.93;;;2.23;;
32082;SDS011;18597;48.328;7.932;2022-07-06T13:46:41;9.00;;;3.30;;
32082;SDS011;18597;48.328;7.932;2022-07-06T13:49:07;2.67;;;2.27;;
32082;SDS011;18597;48.328;7.932;2022-07-06T13:51:33;5.80;;;2.57;;
32082;SDS011;18597;48.328;7.932;2022-07-06T13:53:59;4.33;;;2.67;;
32082;SDS011;18597;48.328;7.932;2022-07-06T13:56:26;8.63;;;2.40;;
32082;SDS011;18597;48.328;7.932;2022-07-06T13:58:53;3.43;;;2.30;;
32082;SDS011;18597;48.328;7.932;2022-07-06T14:01:19;3.57;;;2.10;;
32082;SDS011;18597;48.328;7.932;2022-07-06T14:03:45;2.07;;;1.60;;
32082;SDS011;18597;48.328;7.932;2022-07-06T14:06:12;1.83;;;1.73;;
32082;SDS011;18597;48.328;7.932;2022-07-06T14:08:38;5.40;;;2.27;;
32082;SDS011;18597;48.328;7.932;2022-07-06T14:11:06;6.93;;;1.90;;
32082;SDS011;18597;48.328;7.932;2022-07-06T14:13:33;2.63;;;2.30;;
32082;SDS011;18597;48.328;7.932;2022-07-06T14:16:01;2.63;;;2.53;;
32082;SDS011;18597;48.328;7.932;2022-07-06T14:18:27;2.83;;;2.00;;
32082;SDS011;18597;48.328;7.932;2022-07-06T14:20:53;3.23;;;2.20;;
32082;SDS011;18597;48.328;7.932;2022-07-06T14:23:19;1.60;;;1.50;;
32082;SDS011;18597;48.328;7.932;2022-07-06T14:25:46;6.70;;;1.87;;
32082;SDS011;18597;48.328;7.932;2022-07-06T14:28:13;3.37;;;2.30;;
32082;SDS011;18597;48.328;7.932;2022-07-06T14:30:40;1.90;;;1.50;;
32082;SDS011;18597;48.328;7.932;2022-07-06T14:33:07;3.80;;;1.87;;
32082;SDS011;18597;48.328;7.932;2022-07-06T14:35:35;5.87;;;2.43;;
32082;SDS011;18597;48.328;7.932;2022-07-06T14:38:03;4.80;;;1.60;;
32082;SDS011;18597;48.328;7.932;2022-07-06T14:40:30;4.03;;;1.77;;
32082;SDS011;18597;48.328;7.932;2022-07-06T14:42:57;1.83;;;1.73;;
32082;SDS011;18597;48.328;7.932;2022-07-06T14:45:24;3.37;;;1.67;;
32082;SDS011;18597;48.328;7.932;2022-07-06T14:47:50;1.17;;;1.10;;
32082;SDS011;18597;48.328;7.932;2022-07-06T14:50:16;4.20;;;1.40;;
32082;SDS011;18597;48.328;7.932;2022-07-06T14:52:42;1.50;;;1.40;;
32082;SDS011;18597;48.328;7.932;2022-07-06T14:55:08;1.67;;;1.00;;